Time;durP1;ratioP1;P1;durP2;ratioP2;P2;SDS_P1;SDS_P2;PMS_P1;PMS_P2;Temp;Humidity;BMP_temperature;BMP_pressure;BME280_temperature;BME280_humidity;BME280_pressure;Samples;Min_cycle;Max_cycle;Signal;HPM_P1;HPM_P2
2023/04/10 00:00:30;;;;;;;16.65;8.75;;;11.00;99.90;;;;;;4163763;28;20037;-66
2023/04/10 00:02:31;;;;;;;10.32;7.75;;;11.00;99.90;;;;;;4168371;28;20029;-66
2023/04/10 00:04:31;;;;;;;10.73;7.13;;;10.90;99.90;;;;;;4164116;28;20029;-66
2023/04/10 00:06:32;;;;;;;11.10;7.43;;;10.90;99.90;;;;;;4165024;28;20038;-66
2023/04/10 00:08:32;;;;;;;11.90;8.02;;;10.90;99.90;;;;;;4165665;28;20040;-67
2023/04/10 00:10:33;;;;;;;11.07;7.50;;;10.90;99.90;;;;;;4163473;28;20048;-66
2023/04/10 00:12:36;;;;;;;12.93;8.20;;;10.90;99.90;;;;;;4165001;28;20088;-66
2023/04/10 00:14:37;;;;;;;12.93;7.65;;;10.90;99.90;;;;;;4169178;28;20165;-66
2023/04/10 00:16:37;;;;;;;13.85;8.30;;;10.90;99.90;;;;;;4164003;28;20473;-66
2023/04/10 00:18:38;;;;;;;12.80;7.82;;;10.80;99.90;;;;;;4170197;28;20065;-66
2023/04/10 00:20:39;;;;;;;12.35;8.20;;;10.80;99.90;;;;;;4163572;28;20553;-66
2023/04/10 00:22:40;;;;;;;11.52;7.70;;;10.80;99.90;;;;;;4166774;28;20121;-66
2023/04/10 00:24:41;;;;;;;11.82;7.70;;;10.80;99.90;;;;;;4165144;28;20041;-66
2023/04/10 00:26:41;;;;;;;14.88;8.85;;;10.80;99.90;;;;;;4166722;28;20512;-66
2023/04/10 00:28:42;;;;;;;13.35;7.93;;;10.80;99.90;;;;;;4165320;28;20488;-66
2023/04/10 00:30:42;;;;;;;10.80;7.68;;;10.70;99.90;;;;;;4164659;28;20052;-66
2023/04/10 00:32:43;;;;;;;13.50;8.30;;;10.70;99.90;;;;;;4167582;28;20029;-66
2023/04/10 00:34:44;;;;;;;12.85;7.30;;;10.60;99.90;;;;;;4161695;28;20030;-66
2023/04/10 00:36:46;;;;;;;10.85;7.78;;;10.60;99.90;;;;;;4170118;28;20037;-66
2023/04/10 00:38:48;;;;;;;13.82;8.85;;;10.60;99.90;;;;;;4171528;28;20045;-65
2023/04/10 00:40:49;;;;;;;11.90;7.93;;;10.60;99.90;;;;;;4165784;28;20030;-66
2023/04/10 00:42:49;;;;;;;12.93;8.27;;;10.60;99.90;;;;;;4168850;28;20053;-66
2023/04/10 00:44:50;;;;;;;14.50;9.35;;;10.50;99.90;;;;;;4167358;28;20061;-66
2023/04/10 00:46:51;;;;;;;14.80;8.70;;;10.60;99.90;;;;;;4166596;28;20121;-66
2023/04/10 00:48:53;;;;;;;11.55;7.55;;;10.60;99.90;;;;;;4165522;28;20040;-66
2023/04/10 00:50:53;;;;;;;14.82;9.10;;;10.60;99.90;;;;;;4165145;28;20048;-66
2023/04/10 00:52:56;;;;;;;13.52;8.65;;;10.60;99.90;;;;;;4166837;28;20488;-66
2023/04/10 00:54:56;;;;;;;11.85;7.80;;;10.60;99.90;;;;;;4165190;28;20034;-66
2023/04/10 00:56:57;;;;;;;11.20;7.78;;;10.60;99.90;;;;;;4161760;28;20112;-66
2023/04/10 00:58:58;;;;;;;12.63;8.63;;;10.70;99.90;;;;;;4164689;28;20127;-66
2023/04/10 01:00:59;;;;;;;10.50;7.57;;;10.70;99.90;;;;;;4168034;28;20400;-66
2023/04/10 01:03:00;;;;;;;12.02;7.88;;;10.70;99.90;;;;;;4162571;28;20036;-65
2023/04/10 01:05:01;;;;;;;13.93;8.27;;;10.70;99.90;;;;;;4162067;28;20048;-66
2023/04/10 01:07:43;;;;;;;12.52;8.10;;;10.70;99.90;;;;;;4168435;28;20045;-66
2023/04/10 01:09:51;;;;;;;10.52;7.40;;;10.70;99.90;;;;;;4160436;28;20107;-66
2023/04/10 01:12:33;;;;;;;10.27;7.38;;;10.70;99.90;;;;;;4167798;28;20040;-66
2023/04/10 01:14:49;;;;;;;13.45;7.95;;;10.70;99.90;;;;;;4168843;28;20064;-66
2023/04/10 01:16:54;;;;;;;11.93;8.48;;;10.60;99.90;;;;;;4170332;28;20500;-66
2023/04/10 01:19:22;;;;;;;11.40;7.68;;;10.60;99.90;;;;;;4173613;28;20602;-66
2023/04/10 01:21:23;;;;;;;13.88;9.32;;;10.50;99.90;;;;;;4160726;28;20038;-66
2023/04/10 01:23:45;;;;;;;12.38;8.40;;;10.50;99.90;;;;;;4171182;28;20077;-66
2023/04/10 01:26:02;;;;;;;13.85;8.70;;;10.50;99.90;;;;;;4169137;28;20047;-66
2023/04/10 01:28:08;;;;;;;12.50;8.52;;;10.50;99.90;;;;;;4164394;28;20037;-66
2023/04/10 01:30:15;;;;;;;12.23;8.65;;;10.50;99.90;;;;;;4168544;28;20037;-67
2023/04/10 01:32:20;;;;;;;11.27;7.95;;;10.40;99.90;;;;;;4173740;28;20049;-66
2023/04/10 01:34:25;;;;;;;10.45;7.40;;;10.40;99.90;;;;;;4167019;28;20468;-66
2023/04/10 01:36:45;;;;;;;11.32;7.80;;;10.40;99.90;;;;;;4164900;28;20036;-65
2023/04/10 01:38:47;;;;;;;11.75;7.38;;;10.40;99.90;;;;;;4171147;28;20060;-66
2023/04/10 01:40:52;;;;;;;11.00;7.95;;;10.30;99.90;;;;;;4165522;28;20032;-66
2023/04/10 01:42:55;;;;;;;12.18;8.30;;;10.30;99.90;;;;;;4171690;28;20061;-66
2023/04/10 01:44:57;;;;;;;12.73;8.60;;;10.30;99.90;;;;;;4167543;28;20102;-65
2023/04/10 01:46:58;;;;;;;13.68;8.73;;;10.20;99.90;;;;;;4163418;28;20034;-66
2023/04/10 01:49:02;;;;;;;12.93;8.35;;;10.30;99.90;;;;;;4172526;28;20033;-65
2023/04/10 01:51:05;;;;;;;10.60;7.45;;;10.30;99.90;;;;;;4166875;28;20060;-66
2023/04/10 01:53:06;;;;;;;13.68;8.52;;;10.20;99.90;;;;;;4173546;28;20044;-66
2023/04/10 01:55:07;;;;;;;12.65;8.80;;;10.30;99.90;;;;;;4170013;28;20481;-68
2023/04/10 01:57:09;;;;;;;12.52;8.05;;;10.20;99.90;;;;;;4171666;28;20037;-66
2023/04/10 01:59:11;;;;;;;10.45;7.65;;;10.20;99.90;;;;;;4170940;28;20029;-66
2023/04/10 02:01:18;;;;;;;11.82;7.93;;;10.30;99.90;;;;;;4169285;28;20033;-66
2023/04/10 02:03:19;;;;;;;11.05;7.43;;;10.20;99.90;;;;;;4173852;28;20041;-66
2023/04/10 02:05:21;;;;;;;12.63;7.38;;;10.30;99.90;;;;;;4173238;28;20025;-66
2023/04/10 02:07:34;;;;;;;13.50;8.32;;;10.20;99.90;;;;;;4163941;28;20381;-66
2023/04/10 02:09:56;;;;;;;10.57;7.63;;;10.20;99.90;;;;;;4170582;28;20045;-65
2023/04/10 02:12:11;;;;;;;11.73;7.63;;;10.20;99.90;;;;;;4166381;28;20459;-66
2023/04/10 02:14:16;;;;;;;10.63;7.78;;;10.20;99.90;;;;;;4172054;28;20108;-66
2023/04/10 02:16:18;;;;;;;10.60;7.32;;;10.30;99.90;;;;;;4172087;28;20033;-66
2023/04/10 02:18:20;;;;;;;10.73;7.32;;;10.20;99.90;;;;;;4176436;28;20147;-65
2023/04/10 02:20:22;;;;;;;10.73;7.22;;;10.30;99.90;;;;;;4169995;28;20116;-66
2023/04/10 02:22:24;;;;;;;10.90;7.32;;;10.30;99.90;;;;;;4177511;28;20392;-66
2023/04/10 02:24:25;;;;;;;11.00;7.63;;;10.30;99.90;;;;;;4168612;28;20033;-65
2023/04/10 02:26:26;;;;;;;12.43;7.88;;;10.30;99.90;;;;;;4168095;28;20496;-65
2023/04/10 02:28:26;;;;;;;11.98;8.63;;;10.30;99.90;;;;;;4164154;28;20125;-65
2023/04/10 02:30:28;;;;;;;11.52;7.90;;;10.20;99.90;;;;;;4166736;28;20048;-65
2023/04/10 02:32:29;;;;;;;10.18;7.50;;;10.30;99.90;;;;;;4174711;28;20029;-65
2023/04/10 02:34:30;;;;;;;13.18;8.25;;;10.20;99.90;;;;;;4171580;28;20025;-65
2023/04/10 02:36:31;;;;;;;10.43;7.55;;;10.30;99.90;;;;;;4167644;28;20060;-65
2023/04/10 02:38:32;;;;;;;11.68;7.97;;;10.30;99.90;;;;;;4173436;28;20572;-66
2023/04/10 02:40:32;;;;;;;13.23;8.27;;;10.30;99.90;;;;;;4169938;28;20025;-66
2023/04/10 02:42:33;;;;;;;12.88;8.48;;;10.30;99.90;;;;;;4166826;28;20041;-66
2023/04/10 02:44:34;;;;;;;12.75;8.18;;;10.20;99.90;;;;;;4176185;28;20041;-66
2023/04/10 02:46:34;;;;;;;11.07;7.97;;;10.20;99.90;;;;;;4166919;28;20029;-65
2023/04/10 02:48:35;;;;;;;12.85;8.07;;;10.20;99.90;;;;;;4171883;28;20038;-66
2023/04/10 02:50:36;;;;;;;10.40;7.05;;;10.20;99.90;;;;;;4176588;28;20030;-65
2023/04/10 02:52:37;;;;;;;11.48;8.38;;;10.20;99.90;;;;;;4164381;28;20046;-65
2023/04/10 02:54:38;;;;;;;10.52;7.70;;;10.20;99.90;;;;;;4164338;28;20033;-66
2023/04/10 02:56:38;;;;;;;12.27;7.63;;;10.20;99.90;;;;;;4165657;28;20045;-66
2023/04/10 02:58:39;;;;;;;12.13;8.43;;;10.20;99.90;;;;;;4167519;28;20033;-66
2023/04/10 03:00:40;;;;;;;12.63;8.70;;;10.10;99.90;;;;;;4169155;28;20034;-65
2023/04/10 03:02:40;;;;;;;12.45;8.27;;;10.10;99.90;;;;;;4172941;28;20045;-66
2023/04/10 03:04:41;;;;;;;14.05;8.40;;;10.10;99.90;;;;;;4173521;28;20025;-65
2023/04/10 03:06:42;;;;;;;11.25;8.18;;;10.10;99.90;;;;;;4171686;28;20041;-66
2023/04/10 03:08:42;;;;;;;12.10;7.93;;;10.00;99.90;;;;;;4174019;28;20037;-66
2023/04/10 03:10:44;;;;;;;11.23;7.93;;;10.10;99.90;;;;;;4175839;28;20033;-65
2023/04/10 03:12:45;;;;;;;11.13;7.82;;;10.00;99.90;;;;;;4173558;28;20108;-65
2023/04/10 03:14:45;;;;;;;10.90;7.68;;;10.00;99.90;;;;;;4171291;28;20041;-66
2023/04/10 03:16:46;;;;;;;11.48;8.00;;;10.00;99.90;;;;;;4169791;28;20041;-66
2023/04/10 03:18:47;;;;;;;11.80;8.30;;;10.00;99.90;;;;;;4170495;28;20029;-65
2023/04/10 03:20:48;;;;;;;11.90;8.13;;;10.00;99.90;;;;;;4165951;28;20052;-66
2023/04/10 03:22:49;;;;;;;13.20;8.68;;;10.00;99.90;;;;;;4168760;28;20375;-65
2023/04/10 03:24:50;;;;;;;12.65;8.77;;;10.00;99.90;;;;;;4167955;28;20032;-65
2023/04/10 03:26:50;;;;;;;12.85;8.48;;;9.90;99.90;;;;;;4165705;28;20061;-65
2023/04/10 03:28:51;;;;;;;11.05;8.05;;;9.90;99.90;;;;;;4171092;28;20041;-65
2023/04/10 03:30:52;;;;;;;12.02;8.20;;;9.90;99.90;;;;;;4167349;28;20420;-66
2023/04/10 03:32:52;;;;;;;13.70;8.82;;;9.90;99.90;;;;;;4169312;28;20443;-64
2023/04/10 03:34:53;;;;;;;11.50;8.50;;;9.80;99.90;;;;;;4177083;28;20060;-65
2023/04/10 03:36:53;;;;;;;11.52;7.90;;;9.80;99.90;;;;;;4174960;28;20029;-66
2023/04/10 03:38:54;;;;;;;13.20;8.85;;;9.80;99.90;;;;;;4170156;28;20072;-65
2023/04/10 03:40:54;;;;;;;11.65;8.40;;;9.80;99.90;;;;;;4167113;28;20531;-66
2023/04/10 03:42:55;;;;;;;11.35;7.32;;;9.80;99.90;;;;;;4166267;28;20454;-66
2023/04/10 03:44:55;;;;;;;12.10;8.05;;;9.80;99.90;;;;;;4172201;28;20455;-66
2023/04/10 03:46:56;;;;;;;13.38;8.85;;;9.80;99.90;;;;;;4165251;28;20473;-67
2023/04/10 03:48:57;;;;;;;12.88;8.48;;;9.80;99.90;;;;;;4170827;28;20434;-65
2023/04/10 03:50:57;;;;;;;12.27;8.13;;;9.70;99.90;;;;;;4166785;28;20372;-65
2023/04/10 03:52:59;;;;;;;12.60;7.82;;;9.70;99.90;;;;;;4167383;28;20147;-65
2023/04/10 03:54:59;;;;;;;10.50;7.55;;;9.80;99.90;;;;;;4169091;28;20558;-65
2023/04/10 03:57:03;;;;;;;11.38;7.82;;;9.70;99.90;;;;;;4169845;28;20045;-64
2023/04/10 03:59:03;;;;;;;13.32;8.65;;;9.70;99.90;;;;;;4170754;28;20037;-65
2023/04/10 04:01:04;;;;;;;11.95;8.00;;;9.70;99.90;;;;;;4171825;28;20033;-65
2023/04/10 04:03:05;;;;;;;15.07;8.70;;;9.70;99.90;;;;;;4168038;28;20097;-65
2023/04/10 04:05:06;;;;;;;13.50;8.98;;;9.60;99.90;;;;;;4172280;28;20152;-66
2023/04/10 04:07:07;;;;;;;12.38;8.38;;;9.60;99.90;;;;;;4174748;28;20032;-65
2023/04/10 04:09:08;;;;;;;13.80;8.43;;;9.60;99.90;;;;;;4173505;28;20037;-65
2023/04/10 04:11:08;;;;;;;12.27;8.82;;;9.60;99.90;;;;;;4170149;28;20128;-65
2023/04/10 04:13:09;;;;;;;15.40;8.73;;;9.60;99.90;;;;;;4163882;28;20095;-66
2023/04/10 04:15:10;;;;;;;13.73;7.95;;;9.50;99.90;;;;;;4174158;28;20415;-67
2023/04/10 04:17:11;;;;;;;14.50;8.95;;;9.50;99.90;;;;;;4166676;28;20032;-65
2023/04/10 04:19:11;;;;;;;11.95;7.82;;;9.50;99.90;;;;;;4171539;28;20087;-66
2023/04/10 04:21:12;;;;;;;12.90;8.32;;;9.50;99.90;;;;;;4166464;28;20060;-66
2023/04/10 04:23:12;;;;;;;12.98;8.25;;;9.50;99.90;;;;;;4169463;28;20033;-66
2023/04/10 04:25:13;;;;;;;11.13;7.40;;;9.50;99.90;;;;;;4165811;28;20034;-66
2023/04/10 04:27:13;;;;;;;11.55;7.93;;;9.50;99.90;;;;;;4167172;28;20029;-65
2023/04/10 04:29:14;;;;;;;12.40;8.35;;;9.40;99.90;;;;;;4175572;28;20044;-66
2023/04/10 04:31:15;;;;;;;14.18;8.60;;;9.40;99.90;;;;;;4165750;28;20467;-66
2023/04/10 04:33:15;;;;;;;12.05;7.82;;;9.40;99.90;;;;;;4172735;28;20033;-66
2023/04/10 04:35:16;;;;;;;11.80;7.93;;;9.40;99.90;;;;;;4169561;28;20519;-66
2023/04/10 04:37:16;;;;;;;13.90;8.30;;;9.40;99.90;;;;;;4175552;28;20049;-66
2023/04/10 04:39:17;;;;;;;15.05;8.23;;;9.40;99.90;;;;;;4168797;28;20080;-66
2023/04/10 04:41:18;;;;;;;11.43;7.78;;;9.30;99.90;;;;;;4165228;28;20589;-66
2023/04/10 04:43:18;;;;;;;13.93;8.57;;;9.40;99.90;;;;;;4175150;28;20510;-66
2023/04/10 04:45:20;;;;;;;13.48;8.60;;;9.30;99.90;;;;;;4176161;28;20446;-65
2023/04/10 04:47:23;;;;;;;11.23;7.67;;;9.40;99.90;;;;;;4165792;28;20172;-66
2023/04/10 04:49:23;;;;;;;11.32;7.63;;;9.30;99.90;;;;;;4168307;28;20036;-65
2023/04/10 04:51:24;;;;;;;12.98;8.15;;;9.30;99.90;;;;;;4168816;28;20029;-65
2023/04/10 04:53:25;;;;;;;12.15;7.88;;;9.30;99.90;;;;;;4170412;28;20480;-65
2023/04/10 04:55:25;;;;;;;12.73;8.07;;;9.30;99.90;;;;;;4167118;28;20061;-65
2023/04/10 04:57:26;;;;;;;12.88;7.68;;;9.30;99.90;;;;;;4177165;28;20029;-65
2023/04/10 04:59:26;;;;;;;11.70;8.00;;;9.30;99.90;;;;;;4174607;28;20115;-64
2023/04/10 05:01:27;;;;;;;11.82;7.80;;;9.30;99.90;;;;;;4173956;28;20025;-65
2023/04/10 05:03:28;;;;;;;11.57;7.60;;;9.30;99.90;;;;;;4166162;28;20531;-65
2023/04/10 05:05:28;;;;;;;11.80;7.38;;;9.30;99.90;;;;;;4173167;28;20033;-65
2023/04/10 05:07:30;;;;;;;11.70;7.40;;;9.30;99.90;;;;;;4171942;28;20031;-65
2023/04/10 05:09:30;;;;;;;11.75;7.25;;;9.30;99.90;;;;;;4170092;28;20443;-66
2023/04/10 05:11:31;;;;;;;11.40;7.63;;;9.30;99.90;;;;;;4165516;28;20025;-65
2023/04/10 05:13:31;;;;;;;12.18;7.88;;;9.30;99.90;;;;;;4162181;28;20031;-66
2023/04/10 05:15:32;;;;;;;14.90;8.15;;;9.30;99.90;;;;;;4165524;28;20036;-65
2023/04/10 05:17:32;;;;;;;10.38;7.28;;;9.30;99.90;;;;;;4171322;28;20025;-66
2023/04/10 05:19:33;;;;;;;13.18;8.65;;;9.30;99.90;;;;;;4166944;28;20160;-66
2023/04/10 05:21:36;;;;;;;11.95;7.72;;;9.30;99.90;;;;;;4169042;28;20196;-66
2023/04/10 05:23:36;;;;;;;11.95;7.70;;;9.30;99.90;;;;;;4167713;28;20030;-65
2023/04/10 05:25:37;;;;;;;13.57;7.85;;;9.30;99.90;;;;;;4166510;28;20029;-65
2023/04/10 05:27:38;;;;;;;13.88;8.35;;;9.30;99.90;;;;;;4167182;28;20025;-65
2023/04/10 05:29:38;;;;;;;11.52;7.07;;;9.30;99.90;;;;;;4171278;28;20044;-66
2023/04/10 05:31:39;;;;;;;12.80;7.88;;;9.30;99.90;;;;;;4168616;28;20029;-65
2023/04/10 05:33:39;;;;;;;11.27;7.15;;;9.30;99.90;;;;;;4169247;28;20489;-66
2023/04/10 05:35:40;;;;;;;10.68;7.38;;;9.30;99.90;;;;;;4174184;28;21547;-66
2023/04/10 05:37:40;;;;;;;13.55;7.93;;;9.30;99.90;;;;;;4169957;28;21197;-66
2023/04/10 05:39:41;;;;;;;11.73;7.47;;;9.20;99.90;;;;;;4177387;28;20036;-65
2023/04/10 05:41:42;;;;;;;13.50;7.47;;;9.30;99.90;;;;;;4173522;28;20021;-65
2023/04/10 05:43:42;;;;;;;12.45;7.75;;;9.30;99.90;;;;;;4172813;28;20044;-66
2023/04/10 05:45:44;;;;;;;11.13;7.53;;;9.30;99.90;;;;;;4168410;28;20029;-66
2023/04/10 05:47:44;;;;;;;13.10;7.93;;;9.30;99.90;;;;;;4164626;28;20037;-66
2023/04/10 05:49:45;;;;;;;11.77;7.60;;;9.30;99.90;;;;;;4171689;28;20029;-66
2023/04/10 05:51:49;;;;;;;11.50;7.03;;;9.40;99.90;;;;;;4171025;28;20068;-65
2023/04/10 05:53:50;;;;;;;11.25;7.72;;;9.40;99.90;;;;;;4174406;28;20124;-66
2023/04/10 05:55:50;;;;;;;11.38;6.95;;;9.30;99.90;;;;;;4173794;28;20116;-64
2023/04/10 05:57:51;;;;;;;10.35;6.85;;;9.40;99.90;;;;;;4168804;28;20037;-66
2023/04/10 05:59:51;;;;;;;12.88;7.00;;;9.40;99.90;;;;;;4169467;28;20064;-65
2023/04/10 06:01:52;;;;;;;11.10;7.20;;;9.40;99.90;;;;;;4176472;28;20036;-65
2023/04/10 06:03:52;;;;;;;10.32;7.30;;;9.40;99.90;;;;;;4173366;28;20028;-65
2023/04/10 06:05:53;;;;;;;11.93;7.70;;;9.50;99.90;;;;;;4163514;28;20033;-65
2023/04/10 06:07:54;;;;;;;13.35;8.35;;;9.50;99.90;;;;;;4166298;28;20068;-66
2023/04/10 06:09:55;;;;;;;12.13;7.30;;;9.50;99.90;;;;;;4168104;28;20083;-66
2023/04/10 06:11:55;;;;;;;11.85;7.00;;;9.60;99.90;;;;;;4169924;28;20443;-66
2023/04/10 06:13:56;;;;;;;9.90;7.35;;;9.60;99.90;;;;;;4170804;28;20107;-66
2023/04/10 06:15:57;;;;;;;13.50;8.00;;;9.60;99.90;;;;;;4166049;28;20029;-66
2023/04/10 06:17:57;;;;;;;11.65;7.82;;;9.70;99.90;;;;;;4166991;28;20032;-66
2023/04/10 06:19:59;;;;;;;10.77;7.22;;;9.70;99.90;;;;;;4172199;28;20541;-65
2023/04/10 06:22:00;;;;;;;11.20;7.93;;;9.80;99.90;;;;;;4164280;28;20276;-65
2023/04/10 06:24:01;;;;;;;11.98;8.18;;;9.80;99.90;;;;;;4165703;28;20299;-66
2023/04/10 06:26:02;;;;;;;11.00;7.68;;;9.80;99.90;;;;;;4169400;28;20041;-67
2023/04/10 06:28:03;;;;;;;10.85;7.55;;;9.90;99.90;;;;;;4165821;28;20061;-66
2023/04/10 06:30:04;;;;;;;12.48;7.80;;;10.00;99.90;;;;;;4163372;28;20033;-67
2023/04/10 06:32:05;;;;;;;12.98;8.50;;;10.10;99.90;;;;;;4169485;28;20104;-67
2023/04/10 06:34:05;;;;;;;11.75;8.23;;;10.20;99.90;;;;;;4167705;28;20037;-66
2023/04/10 06:36:06;;;;;;;10.23;7.55;;;10.40;99.90;;;;;;4163910;28;20036;-67
2023/04/10 06:38:07;;;;;;;11.30;7.72;;;10.60;99.90;;;;;;4160960;28;20089;-67
2023/04/10 06:40:14;;;;;;;13.88;8.52;;;10.80;99.90;;;;;;4166726;28;20083;-68
2023/04/10 06:42:15;;;;;;;11.55;7.38;;;11.00;99.90;;;;;;4166343;28;20098;-67
2023/04/10 06:44:16;;;;;;;10.25;7.32;;;11.30;99.90;;;;;;4161450;28;20041;-68
2023/04/10 06:46:16;;;;;;;13.23;8.18;;;11.50;99.90;;;;;;4158849;28;20045;-67
2023/04/10 06:48:17;;;;;;;12.73;7.78;;;11.60;99.90;;;;;;4164599;28;20365;-68
2023/04/10 06:50:18;;;;;;;11.90;8.35;;;11.70;99.90;;;;;;4163767;28;20046;-67
2023/04/10 06:52:18;;;;;;;9.73;7.13;;;11.70;99.90;;;;;;4165455;28;20045;-67
2023/04/10 06:54:19;;;;;;;10.85;7.60;;;11.90;99.90;;;;;;4162819;28;20035;-67
2023/04/10 06:56:20;;;;;;;11.60;7.78;;;12.00;99.90;;;;;;4160789;28;20032;-67
2023/04/10 06:58:20;;;;;;;9.55;6.82;;;12.10;99.90;;;;;;4164705;28;20087;-67
2023/04/10 07:00:22;;;;;;;10.38;7.03;;;12.30;99.90;;;;;;4159034;28;20061;-67
2023/04/10 07:02:22;;;;;;;10.85;7.10;;;12.40;99.90;;;;;;4162329;28;20571;-68
2023/04/10 07:04:23;;;;;;;9.13;6.65;;;12.60;99.90;;;;;;4157482;28;20045;-67
2023/04/10 07:06:25;;;;;;;11.65;7.82;;;12.70;99.90;;;;;;4160695;28;20112;-67
2023/04/10 07:08:25;;;;;;;10.30;7.60;;;12.80;99.90;;;;;;4166367;28;20095;-68
2023/04/10 07:10:26;;;;;;;10.00;7.40;;;12.80;99.90;;;;;;4164494;28;20149;-67
2023/04/10 07:12:26;;;;;;;10.80;6.70;;;12.80;99.90;;;;;;4164185;28;20030;-67
2023/04/10 07:14:27;;;;;;;10.75;7.47;;;12.80;99.90;;;;;;4166556;28;20037;-67
2023/04/10 07:16:28;;;;;;;9.27;6.88;;;12.70;99.90;;;;;;4165373;28;20492;-68
2023/04/10 07:18:28;;;;;;;10.25;7.00;;;12.80;99.90;;;;;;4171393;28;20447;-67
2023/04/10 07:20:29;;;;;;;9.90;7.32;;;12.80;99.90;;;;;;4166418;28;20412;-67
2023/04/10 07:22:30;;;;;;;11.68;7.45;;;12.80;99.90;;;;;;4166523;28;20038;-67
2023/04/10 07:24:31;;;;;;;10.00;7.22;;;12.70;99.90;;;;;;4164850;28;20119;-68
2023/04/10 07:26:32;;;;;;;10.07;6.93;;;12.70;99.90;;;;;;4163137;28;20488;-68
2023/04/10 07:28:32;;;;;;;10.45;6.78;;;12.80;99.90;;;;;;4169184;28;20090;-68
2023/04/10 07:30:33;;;;;;;9.85;6.88;;;12.90;99.90;;;;;;4164366;28;20099;-67
2023/04/10 07:32:33;;;;;;;13.80;6.82;;;13.00;99.90;;;;;;4168258;28;20105;-68
2023/04/10 07:34:34;;;;;;;9.38;6.63;;;13.00;99.90;;;;;;4165200;28;20040;-68
2023/04/10 07:36:35;;;;;;;9.43;6.75;;;13.10;99.90;;;;;;4163816;28;20120;-68
2023/04/10 07:38:36;;;;;;;10.45;7.07;;;13.20;99.90;;;;;;4166413;28;20049;-67
2023/04/10 07:40:37;;;;;;;10.60;7.55;;;13.10;99.90;;;;;;4165744;28;20112;-67
2023/04/10 07:42:38;;;;;;;10.02;6.90;;;13.20;99.90;;;;;;4169063;28;20059;-68
2023/04/10 07:44:38;;;;;;;9.80;6.25;;;13.30;99.90;;;;;;4166112;28;20038;-67
2023/04/10 07:46:40;;;;;;;9.45;6.97;;;13.30;99.90;;;;;;4167573;28;20033;-67
2023/04/10 07:48:41;;;;;;;9.32;6.55;;;13.30;99.50;;;;;;4162054;28;20493;-67
2023/04/10 07:50:41;;;;;;;9.60;7.07;;;13.40;99.90;;;;;;4162629;28;20040;-67
2023/04/10 07:52:42;;;;;;;10.82;7.28;;;13.50;99.30;;;;;;4164870;28;20547;-68
2023/04/10 07:54:42;;;;;;;8.38;6.70;;;13.50;99.20;;;;;;4160750;28;20037;-67
2023/04/10 07:56:43;;;;;;;8.27;5.95;;;13.50;99.30;;;;;;4166018;28;22392;-67
2023/04/10 07:58:44;;;;;;;9.45;6.65;;;13.60;99.80;;;;;;4161731;28;20468;-67
2023/04/10 08:00:45;;;;;;;8.57;6.50;;;13.70;98.90;;;;;;4159940;28;20052;-68
2023/04/10 08:02:45;;;;;;;8.27;6.18;;;13.70;99.80;;;;;;4160902;28;20529;-68
2023/04/10 08:04:46;;;;;;;8.77;6.15;;;13.80;99.30;;;;;;4160498;28;20090;-67
2023/04/10 08:06:48;;;;;;;8.93;5.78;;;13.80;98.60;;;;;;4162335;28;20033;-67
2023/04/10 08:08:50;;;;;;;10.03;6.23;;;13.90;97.90;;;;;;4164205;28;20032;-67
2023/04/10 08:10:51;;;;;;;7.75;6.00;;;13.90;97.80;;;;;;4163081;28;20132;-67
2023/04/10 08:12:52;;;;;;;9.35;6.40;;;13.90;96.40;;;;;;4163877;28;20519;-67
2023/04/10 08:14:52;;;;;;;11.45;5.95;;;13.90;96.60;;;;;;4162638;28;20488;-67
2023/04/10 08:16:53;;;;;;;8.15;5.50;;;14.00;96.30;;;;;;4166661;28;20030;-67
2023/04/10 08:18:54;;;;;;;8.02;5.70;;;14.00;96.60;;;;;;4164358;28;20194;-67
2023/04/10 08:20:55;;;;;;;7.65;5.75;;;14.00;96.20;;;;;;4163944;28;20045;-67
2023/04/10 08:22:55;;;;;;;7.55;5.55;;;14.10;96.50;;;;;;4162946;28;20044;-68
2023/04/10 08:24:56;;;;;;;8.80;6.03;;;14.10;96.10;;;;;;4164402;28;20121;-67
2023/04/10 08:26:56;;;;;;;7.82;5.65;;;14.10;96.00;;;;;;4162562;28;20048;-67
2023/04/10 08:28:58;;;;;;;7.05;5.25;;;14.20;96.20;;;;;;4161955;28;20029;-67
2023/04/10 08:30:59;;;;;;;11.30;6.22;;;14.20;96.50;;;;;;4159557;28;20156;-67
2023/04/10 08:32:59;;;;;;;10.45;5.88;;;14.20;95.70;;;;;;4160102;28;20053;-67
2023/04/10 08:35:00;;;;;;;8.52;5.68;;;14.10;95.80;;;;;;4161996;28;20041;-67
2023/04/10 08:37:05;;;;;;;7.35;5.47;;;14.00;95.90;;;;;;4161134;28;20870;-67
2023/04/10 08:39:05;;;;;;;7.65;5.53;;;14.10;95.70;;;;;;4164445;28;20053;-67
2023/04/10 08:41:08;;;;;;;7.75;5.40;;;14.10;95.70;;;;;;4163263;28;20116;-66
2023/04/10 08:43:09;;;;;;;7.20;5.18;;;14.00;96.00;;;;;;4163475;28;20484;-67
2023/04/10 08:45:10;;;;;;;9.15;5.63;;;14.10;96.10;;;;;;4165171;28;20033;-67
2023/04/10 08:47:13;;;;;;;8.38;5.50;;;14.10;96.00;;;;;;4163827;28;20088;-68
2023/04/10 08:49:26;;;;;;;6.47;4.93;;;14.10;95.40;;;;;;4158264;28;20098;-67
2023/04/10 08:51:31;;;;;;;;;;;14.00;96.00;;;;;;4160234;28;20037;-67
2023/04/10 08:53:40;;;;;;;8.85;5.78;;;14.10;95.90;;;;;;4166545;28;19909;-67
2023/04/10 08:55:41;;;;;;;7.10;5.28;;;14.20;96.30;;;;;;4168136;28;20388;-67
2023/04/10 08:57:42;;;;;;;6.63;4.95;;;14.20;95.90;;;;;;4164899;28;20060;-67
2023/04/10 08:59:43;;;;;;;6.35;5.00;;;14.30;95.20;;;;;;4164042;28;20178;-69
2023/04/10 09:01:45;;;;;;;6.68;5.35;;;14.40;95.30;;;;;;4162438;28;20041;-67
2023/04/10 09:03:47;;;;;;;7.47;5.03;;;14.50;94.70;;;;;;4163119;28;20041;-65
2023/04/10 09:05:47;;;;;;;5.88;4.43;;;14.50;94.90;;;;;;4165349;28;20049;-67
2023/04/10 09:07:48;;;;;;;7.82;4.63;;;14.60;94.90;;;;;;4163458;28;20559;-68
2023/04/10 09:09:49;;;;;;;6.88;5.40;;;14.70;95.40;;;;;;4162199;28;20399;-67
2023/04/10 09:11:54;;;;;;;7.65;4.88;;;14.80;94.40;;;;;;4164813;28;20056;-67
2023/04/10 09:13:55;;;;;;;6.13;4.70;;;14.80;94.00;;;;;;4166551;28;20103;-66
2023/04/10 09:15:58;;;;;;;6.95;5.20;;;14.90;93.70;;;;;;4164527;28;20036;-68
2023/04/10 09:18:00;;;;;;;6.15;4.63;;;14.90;94.70;;;;;;4166303;28;20035;-66
2023/04/10 09:20:01;;;;;;;7.75;5.53;;;14.90;94.30;;;;;;4163470;28;20554;-67
2023/04/10 09:22:02;;;;;;;5.80;4.60;;;15.00;94.50;;;;;;4166652;28;20030;-67
2023/04/10 09:24:03;;;;;;;5.90;4.47;;;15.00;94.00;;;;;;4163416;28;20115;-67
2023/04/10 09:26:24;;;;;;;6.97;4.72;;;15.10;93.70;;;;;;4166862;28;20034;-67
2023/04/10 09:28:24;;;;;;;6.60;4.70;;;15.10;93.60;;;;;;4168757;28;20079;-67
2023/04/10 09:30:33;;;;;;;5.93;4.50;;;15.10;93.90;;;;;;4166054;28;20508;-66
2023/04/10 09:32:41;;;;;;;6.32;4.60;;;15.10;94.70;;;;;;4170547;28;20025;-66
2023/04/10 09:34:52;;;;;;;7.57;4.78;;;15.10;93.70;;;;;;4171478;28;20087;-67
2023/04/10 09:36:55;;;;;;;5.88;4.53;;;15.20;93.80;;;;;;4167808;28;20040;-66
2023/04/10 09:38:56;;;;;;;;;;;15.20;94.00;;;;;;4168559;28;20419;-66
2023/04/10 09:41:07;;;;;;;8.30;4.50;;;15.30;93.70;;;;;;4168863;28;19962;-66
2023/04/10 09:43:21;;;;;;;8.82;4.78;;;15.30;93.60;;;;;;4170042;28;20532;-66
2023/04/10 09:45:22;;;;;;;6.03;4.50;;;15.30;93.80;;;;;;4161241;28;20040;-67
2023/04/10 09:47:23;;;;;;;11.90;4.70;;;15.40;93.90;;;;;;4167163;28;20029;-67
2023/04/10 09:49:23;;;;;;;6.18;3.97;;;15.40;93.70;;;;;;4169629;28;20029;-67
2023/04/10 09:51:32;;;;;;;6.47;4.05;;;15.50;94.10;;;;;;4166776;28;20043;-66
2023/04/10 09:53:49;;;;;;;5.75;4.05;;;15.50;93.70;;;;;;4165447;28;20067;-67
2023/04/10 09:55:50;;;;;;;7.35;4.05;;;15.60;94.10;;;;;;4165814;28;20409;-66
2023/04/10 09:57:51;;;;;;;5.15;3.72;;;15.60;93.00;;;;;;4167958;28;20029;-67
2023/04/10 09:59:56;;;;;;;5.57;3.95;;;15.70;93.50;;;;;;4168246;28;20033;-66
2023/04/10 10:01:57;;;;;;;4.80;3.72;;;15.60;92.50;;;;;;4167452;28;20033;-67
2023/04/10 10:04:02;;;;;;;6.55;4.57;;;15.70;92.60;;;;;;4163001;28;20062;-67
2023/04/10 10:06:03;;;;;;;4.93;3.92;;;15.80;93.30;;;;;;4167510;28;20061;-67
2023/04/10 10:08:04;;;;;;;5.20;3.75;;;15.90;93.30;;;;;;4166604;28;20366;-67
2023/04/10 10:10:07;;;;;;;5.30;4.30;;;16.00;92.60;;;;;;4166249;28;20084;-67
2023/04/10 10:12:10;;;;;;;5.10;3.70;;;16.00;92.20;;;;;;4169958;28;20549;-66
2023/04/10 10:14:16;;;;;;;6.32;4.07;;;16.00;92.50;;;;;;4169801;28;20111;-66
2023/04/10 10:16:43;;;;;;;5.65;4.28;;;16.00;92.20;;;;;;4167675;28;20049;-66
2023/04/10 10:18:58;;;;;;;5.90;4.45;;;15.90;92.20;;;;;;4166592;28;20029;-67
2023/04/10 10:21:00;;;;;;;6.82;4.22;;;16.00;92.10;;;;;;4170107;28;20029;-66
2023/04/10 10:23:05;;;;;;;4.88;3.80;;;16.00;92.60;;;;;;4167677;28;20508;-66
2023/04/10 10:25:07;;;;;;;5.43;3.95;;;16.00;91.90;;;;;;4163475;28;20045;-66
2023/04/10 10:27:08;;;;;;;6.15;4.35;;;16.10;92.00;;;;;;4167203;28;20041;-67
2023/04/10 10:29:12;;;;;;;5.55;4.13;;;16.10;91.80;;;;;;4165643;28;20397;-67
2023/04/10 10:31:16;;;;;;;5.28;3.70;;;16.00;91.50;;;;;;4165248;28;20044;-66
2023/04/10 10:33:17;;;;;;;7.82;4.18;;;16.10;92.10;;;;;;4170422;28;20041;-66